KGLR/GLR METAR and TAF weather

Enter ICAO airport designator
Station Type Date Time Source
KGLR METAR 2019/08/25 14:53 UTC NOAA

KGLR 251453Z AUTO 15010KT 10SM CLR 19/11 A3028 RMK AO2 SLP253 T01940106 58002 $


Station Type Date Time Source
KGLR Decoded METAR 2019/08/25 14:53 UTC NOAA

Station name not available
Aug 25, 2019 - 10:53 AM EDT / 2019.08.25 1453 UTC
Wind: from the SSE (150 degrees) at 12 MPH (10 KT):0
Visibility: 10 mile(s):0
Sky conditions: clear
Temperature: 66.9 F (19.4 C)
Dew Point: 51.1 F (10.6 C)
Relative Humidity: 56%
Pressure (altimeter): 30.28 in. Hg (1025 hPa)
Pressure tendency: 0.01 inches (0.2 hPa) lower than three hours ago
ob: KGLR 251453Z AUTO 15010KT 10SM CLR 19/11 A3028 RMK AO2 SLP253 T01940106 58002
cycle: 15

Station Type Date Time Source
KGLR TAF UTC NOAA

Error!

Example: see airport list